createdAt,value
2023-09-15T00:04:47.561Z,83.97
2023-09-15T00:09:49.408Z,83.95
2023-09-15T00:14:51.021Z,83.83
2023-09-15T00:19:52.594Z,83.76
2023-09-15T00:24:56.859Z,83.91
2023-09-15T00:29:58.457Z,84.03
2023-09-15T00:35:00.027Z,83.97
2023-09-15T00:40:01.905Z,83.37
2023-09-15T00:45:06.955Z,83.64
2023-09-15T00:50:09.990Z,83.65
2023-09-15T00:55:15.153Z,84.06
2023-09-15T01:00:18.806Z,84.06
2023-09-15T01:05:24.719Z,84.22
2023-09-15T01:10:26.480Z,85.01
2023-09-15T01:15:38.489Z,84.86
2023-09-15T01:21:32.379Z,85.21
2023-09-15T01:27:04.199Z,85.86
2023-09-15T01:32:09.620Z,86.20
2023-09-15T01:37:11.274Z,86.64
2023-09-15T01:42:12.964Z,87.11
2023-09-15T01:47:23.114Z,87.78
2023-09-15T01:52:24.987Z,87.61
2023-09-15T01:57:26.849Z,87.88
2023-09-15T02:02:28.772Z,88.65
2023-09-15T02:07:30.531Z,87.90
2023-09-15T02:12:32.142Z,87.84
2023-09-15T02:17:33.771Z,88.14
2023-09-15T02:22:35.369Z,88.52
2023-09-15T02:27:40.913Z,88.95
2023-09-15T02:32:42.544Z,89.11
2023-09-15T02:37:44.163Z,89.44
2023-09-15T02:42:45.765Z,89.75
2023-09-15T02:47:47.392Z,90.12
2023-09-15T02:52:49.577Z,90.01
2023-09-15T02:57:56.012Z,90.58
2023-09-15T03:02:58.228Z,90.89
2023-09-15T03:07:59.856Z,91.31
2023-09-15T03:13:03.832Z,91.60
2023-09-15T03:18:05.829Z,92.20
2023-09-15T03:23:07.523Z,91.95
2023-09-15T03:28:10.833Z,92.27
2023-09-15T03:33:12.404Z,92.84
2023-09-15T03:38:13.976Z,93.13
2023-09-15T03:43:15.647Z,93.50
2023-09-15T03:48:17.321Z,93.35
2023-09-15T03:53:18.877Z,93.38
2023-09-15T03:58:20.470Z,93.31
2023-09-15T04:03:22.436Z,93.42
2023-09-15T04:08:24.212Z,93.44
2023-09-15T04:13:25.791Z,94.10
2023-09-15T04:18:28.155Z,93.83
2023-09-15T04:23:29.635Z,93.98
2023-09-15T04:28:31.201Z,93.87
2023-09-15T04:33:32.869Z,94.27
2023-09-15T04:38:34.489Z,94.42
2023-09-15T04:43:37.097Z,94.66
2023-09-15T04:48:38.670Z,95.07
2023-09-15T04:53:40.887Z,95.36
2023-09-15T04:58:46.465Z,93.67
2023-09-15T05:03:48.416Z,91.10
2023-09-15T05:08:50.091Z,89.41
2023-09-15T05:13:51.749Z,87.90
2023-09-15T05:18:53.412Z,86.00
2023-09-15T05:23:54.987Z,84.44
2023-09-15T05:28:56.591Z,82.26
2023-09-15T05:33:59.072Z,80.12
2023-09-15T05:39:00.624Z,78.18
2023-09-15T05:44:02.199Z,77.94
2023-09-15T05:49:03.992Z,75.74
2023-09-15T05:54:05.714Z,74.65
2023-09-15T05:59:07.796Z,73.34
2023-09-15T06:04:11.450Z,71.60
2023-09-15T06:09:13.145Z,70.69
2023-09-15T06:14:14.720Z,70.81
2023-09-15T06:19:16.412Z,68.73
2023-09-15T06:24:18.039Z,67.62
2023-09-15T06:29:19.745Z,65.63
2023-09-15T06:34:21.632Z,64.61
2023-09-15T06:39:24.783Z,65.82
2023-09-15T06:44:26.565Z,64.37
2023-09-15T06:49:29.021Z,62.79
2023-09-15T06:54:30.625Z,63.45
2023-09-15T06:59:32.268Z,63.04
2023-09-15T07:04:34.197Z,62.67
2023-09-15T07:09:35.932Z,61.42
2023-09-15T07:14:37.598Z,59.66
2023-09-15T07:19:39.448Z,60.17
2023-09-15T07:24:42.327Z,64.47
2023-09-15T07:29:43.874Z,61.71
2023-09-15T07:34:46.004Z,59.91
2023-09-15T07:39:47.836Z,58.20
2023-09-15T07:44:49.498Z,56.62
2023-09-15T07:49:51.202Z,58.93
2023-09-15T07:54:53.400Z,59.28
2023-09-15T07:59:55.014Z,60.48
2023-09-15T08:04:56.595Z,58.49
2023-09-15T08:09:58.299Z,60.07
2023-09-15T08:14:59.912Z,60.34
2023-09-15T08:20:02.595Z,61.00
2023-09-15T08:25:05.188Z,60.95
2023-09-15T08:30:10.857Z,61.53
2023-09-15T08:35:12.483Z,60.98
2023-09-15T08:40:14.118Z,62.11
2023-09-15T08:45:16.116Z,57.87
2023-09-15T08:50:18.256Z,59.53
2023-09-15T08:55:20.232Z,59.01
2023-09-15T09:00:23.975Z,60.41
2023-09-15T09:05:26.121Z,58.67
2023-09-15T09:10:27.760Z,53.51
2023-09-15T09:15:33.551Z,54.68
2023-09-15T09:20:36.194Z,51.14
2023-09-15T09:25:37.972Z,52.40
2023-09-15T09:30:39.643Z,55.45
2023-09-15T09:35:41.250Z,55.32
2023-09-15T09:40:43.036Z,58.68
2023-09-15T09:45:48.853Z,57.77
2023-09-15T09:50:50.873Z,57.85
2023-09-15T09:55:53.440Z,57.11
2023-09-15T10:00:55.119Z,53.57
2023-09-15T10:05:57.319Z,50.71
2023-09-15T10:10:59.680Z,53.36
2023-09-15T10:16:01.295Z,51.45
2023-09-15T10:21:03.989Z,54.37
2023-09-15T10:26:10.420Z,53.14
2023-09-15T10:31:13.881Z,50.22
2023-09-15T10:36:16.773Z,50.07
2023-09-15T10:46:43.829Z,51.21
2023-09-15T10:51:56.915Z,48.93
2023-09-15T10:56:59.561Z,49.55
2023-09-15T11:02:01.337Z,47.73
2023-09-15T11:07:06.205Z,48.21
2023-09-15T11:12:07.899Z,49.64
2023-09-15T11:17:10.160Z,46.48
2023-09-15T11:22:12.455Z,48.49
2023-09-15T11:27:16.687Z,49.94
2023-09-15T11:32:18.379Z,47.63
2023-09-15T11:37:19.997Z,48.18
2023-09-15T11:42:22.351Z,49.52
2023-09-15T11:47:24.279Z,49.31
2023-09-15T11:52:26.683Z,49.10
2023-09-15T11:57:28.817Z,49.92
2023-09-15T12:02:30.634Z,48.16
2023-09-15T12:07:32.424Z,46.91
2023-09-15T12:12:34.153Z,48.20
2023-09-15T12:17:35.936Z,48.46
2023-09-15T12:22:42.933Z,47.37
2023-09-15T12:27:44.646Z,47.16
2023-09-15T12:32:48.112Z,45.85
2023-09-15T12:37:50.228Z,47.86
2023-09-15T12:42:51.927Z,46.67
2023-09-15T12:47:53.459Z,48.02
2023-09-15T12:52:55.769Z,48.26
2023-09-15T12:57:57.370Z,48.55
2023-09-15T13:02:59.174Z,48.33
2023-09-15T13:08:00.804Z,48.38
2023-09-15T13:13:02.340Z,46.98
2023-09-15T13:18:04.372Z,46.47
2023-09-15T13:23:06.029Z,47.64
2023-09-15T13:28:07.740Z,47.26
2023-09-15T13:33:09.522Z,48.19
2023-09-15T13:38:11.494Z,47.27
2023-09-15T13:43:13.168Z,46.60
2023-09-15T13:48:17.092Z,46.92
2023-09-15T13:53:19.306Z,45.77
2023-09-15T13:58:21.215Z,45.97
2023-09-15T14:03:24.362Z,46.36
2023-09-15T14:08:26.603Z,46.54
2023-09-15T14:13:28.434Z,47.15
2023-09-15T14:18:30.279Z,47.06
2023-09-15T14:23:32.779Z,46.45
2023-09-15T14:28:34.787Z,45.83
2023-09-15T14:33:36.808Z,45.88
2023-09-15T14:38:39.139Z,44.44
2023-09-15T14:43:42.917Z,44.96
2023-09-15T14:48:51.241Z,44.29
2023-09-15T14:53:53.722Z,45.38
2023-09-15T14:58:56.926Z,45.41
2023-09-15T15:03:59.040Z,45.68
2023-09-15T15:09:01.269Z,46.37
2023-09-15T15:14:03.788Z,47.53
2023-09-15T15:19:07.180Z,47.14
2023-09-15T15:24:10.154Z,48.22
2023-09-15T15:29:12.509Z,49.01
2023-09-15T15:34:15.114Z,48.98
2023-09-15T15:39:17.335Z,48.88
2023-09-15T15:44:24.899Z,49.93
2023-09-15T15:49:29.234Z,50.52
2023-09-15T15:54:33.596Z,50.41
2023-09-15T15:59:35.993Z,51.12
2023-09-15T16:04:38.353Z,51.88
2023-09-15T16:09:40.684Z,52.83
2023-09-15T16:14:42.992Z,53.96
2023-09-15T16:19:45.606Z,54.56
2023-09-15T16:24:48.118Z,54.83
2023-09-15T16:29:50.899Z,55.27
2023-09-15T16:34:55.802Z,56.31
2023-09-15T16:40:00.165Z,57.37
2023-09-15T16:45:05.009Z,58.07
2023-09-15T16:50:10.256Z,58.61
2023-09-15T16:55:15.779Z,59.70
2023-09-15T17:00:19.526Z,60.26
2023-09-15T17:05:22.998Z,61.43
2023-09-15T17:10:26.127Z,62.37
2023-09-15T17:15:29.237Z,63.11
2023-09-15T17:20:34.328Z,64.63
2023-09-15T17:25:38.100Z,65.46
2023-09-15T17:30:41.983Z,65.91
2023-09-15T17:35:45.296Z,66.01
2023-09-15T17:40:49.048Z,65.78
2023-09-15T17:45:56.281Z,65.97
2023-09-15T17:51:01.075Z,65.92
2023-09-15T17:56:04.900Z,66.90
2023-09-15T18:01:09.315Z,66.93
2023-09-15T18:06:14.355Z,66.94
2023-09-15T18:11:21.849Z,67.30
2023-09-15T18:16:26.195Z,67.21
2023-09-15T18:21:30.252Z,67.62
2023-09-15T18:26:34.454Z,67.92
2023-09-15T18:31:38.162Z,67.89
2023-09-15T18:36:42.443Z,68.15
2023-09-15T18:41:48.952Z,68.93
2023-09-15T18:46:54.630Z,70.10
2023-09-15T18:51:59.949Z,71.05
2023-09-15T18:57:06.028Z,71.88
2023-09-15T19:02:16.025Z,72.34
2023-09-15T19:07:24.008Z,72.45
2023-09-15T19:12:31.115Z,72.75
2023-09-15T19:17:35.645Z,73.29
2023-09-15T19:22:42.502Z,73.18
2023-09-15T19:27:48.218Z,73.50
2023-09-15T19:32:55.109Z,74.15
2023-09-15T19:38:04.273Z,74.58
2023-09-15T19:43:14.296Z,74.54
2023-09-15T19:48:22.062Z,74.84
2023-09-15T19:53:30.754Z,75.74
2023-09-15T19:58:40.478Z,76.17
2023-09-15T20:03:45.065Z,76.46
2023-09-15T20:08:49.643Z,76.79
2023-09-15T20:13:53.289Z,77.07
2023-09-15T20:18:57.341Z,77.61
2023-09-15T20:24:00.763Z,78.16
2023-09-15T20:29:04.986Z,78.29
2023-09-15T20:34:08.834Z,78.51
2023-09-15T20:39:12.944Z,78.74
2023-09-15T20:44:16.752Z,79.52
2023-09-15T20:49:20.791Z,79.75
2023-09-15T20:54:24.257Z,80.26
2023-09-15T20:59:28.274Z,80.42
2023-09-15T21:04:30.129Z,81.28
2023-09-15T21:09:31.892Z,81.03
2023-09-15T21:14:33.718Z,81.54
2023-09-15T21:19:35.389Z,81.64
2023-09-15T21:24:37.183Z,81.68
2023-09-15T21:29:38.891Z,82.00
2023-09-15T21:34:40.676Z,81.97
2023-09-15T21:39:42.318Z,82.49
2023-09-15T21:44:43.983Z,82.75
2023-09-15T21:49:45.780Z,82.39
2023-09-15T21:54:47.438Z,82.62
2023-09-15T21:59:49.244Z,82.44
2023-09-15T22:04:50.913Z,82.84
2023-09-15T22:09:52.514Z,83.19
2023-09-15T22:14:54.716Z,83.25
2023-09-15T22:20:00.324Z,83.69
2023-09-15T22:25:02.012Z,83.81
2023-09-15T22:30:04.576Z,83.87
2023-09-15T22:35:07.913Z,84.33
2023-09-15T22:40:10.772Z,83.79
2023-09-15T22:45:13.664Z,84.38
2023-09-15T22:50:15.353Z,84.07
2023-09-15T22:55:21.715Z,84.44
2023-09-15T23:00:23.472Z,85.08
2023-09-15T23:05:25.424Z,85.27
2023-09-15T23:10:27.048Z,85.37
2023-09-15T23:15:28.866Z,85.13
2023-09-15T23:20:30.542Z,84.86
2023-09-15T23:25:32.135Z,85.41
2023-09-15T23:30:33.825Z,85.07
2023-09-15T23:35:35.474Z,85.32
2023-09-15T23:40:40.258Z,85.60
2023-09-15T23:45:41.956Z,86.08
2023-09-15T23:50:43.763Z,87.28
2023-09-15T23:55:45.316Z,88.09
